Curico, Chile
Current Conditions -  °F | °C
As of 11:00 AM on Sunday 21 Dec 2014 (Local Time) from SCIC Reporting Station
Broken Clouds Broken Clouds  
Wind Chill: 59°   Ceiling: 2500
Heat Index: 59°   Visibility: 6mi
Dew Point: 46°   Wind: 10mph
Humidity: 63%   Direction: 200°SSW
Pressure: 30.12"   Gusts: NA
Location:  34.98°S, 71.24°W
Report Text: SCIC 211500Z 20009KT 9999 BKN025 15/08 Q1020
Loading
Personal Weather Stations






























Interactive Weather Map New forecast layout! Learn more

10-Day Weather Forecast

Advertisements
Track Severe Weather on mobile